Terminal Aerodrome Forecast
Issued by NWS

Home | Current Version | Previous Version | Text Only | Print | Product List | Glossary On
Versions: 1 2 3 4 5 6 7 8 9 10 11 12 13 14 15
000
FTUS41 KPBZ 282300
TAFMGW
TAF
KMGW 282331Z 2900/2924 33008KT 2SM -DZ BR OVC005
      TEMPO 2900/2903 5SM -DZ BR SCT005 OVC012
     FM290300 30004KT 6SM BR BKN012 OVC025
     FM290700 32004KT 6SM BR BKN025
     FM291500 35004KT P6SM SCT025 OVC100=

USA.gov is the U.S. government's official web portal to all federal, state and local government web resources and services.